sensor_id;sensor_type;location;lat;lon;timestamp;P1;durP1;ratioP1;P2;durP2;ratioP2
55330;SDS011;58851;42.984;20.336;2023-11-21T00:00:04;166.73;;;96.63;;
55330;SDS011;58851;42.984;20.336;2023-11-21T00:02:37;177.93;;;100.68;;
55330;SDS011;58851;42.984;20.336;2023-11-21T00:05:06;166.10;;;102.32;;
55330;SDS011;58851;42.984;20.336;2023-11-21T00:07:33;169.82;;;97.95;;
55330;SDS011;58851;42.984;20.336;2023-11-21T00:09:59;135.80;;;84.70;;
55330;SDS011;58851;42.984;20.336;2023-11-21T00:12:25;119.95;;;74.63;;
55330;SDS011;58851;42.984;20.336;2023-11-21T00:14:51;129.65;;;79.70;;
55330;SDS011;58851;42.984;20.336;2023-11-21T00:17:18;134.23;;;86.10;;
55330;SDS011;58851;42.984;20.336;2023-11-21T00:19:44;174.30;;;103.90;;
55330;SDS011;58851;42.984;20.336;2023-11-21T00:22:10;223.00;;;121.63;;
55330;SDS011;58851;42.984;20.336;2023-11-21T00:24:36;174.23;;;107.35;;
55330;SDS011;58851;42.984;20.336;2023-11-21T00:27:02;165.05;;;99.07;;
55330;SDS011;58851;42.984;20.336;2023-11-21T00:29:29;143.13;;;91.43;;
55330;SDS011;58851;42.984;20.336;2023-11-21T00:31:56;153.30;;;93.85;;
55330;SDS011;58851;42.984;20.336;2023-11-21T00:34:22;141.75;;;93.43;;
55330;SDS011;58851;42.984;20.336;2023-11-21T00:36:47;146.85;;;91.18;;
55330;SDS011;58851;42.984;20.336;2023-11-21T00:39:13;145.57;;;93.45;;
55330;SDS011;58851;42.984;20.336;2023-11-21T00:41:39;145.10;;;89.20;;
55330;SDS011;58851;42.984;20.336;2023-11-21T00:44:05;150.23;;;95.28;;
55330;SDS011;58851;42.984;20.336;2023-11-21T00:46:31;165.40;;;101.38;;
55330;SDS011;58851;42.984;20.336;2023-11-21T00:48:57;181.52;;;112.38;;
55330;SDS011;58851;42.984;20.336;2023-11-21T00:51:24;173.88;;;106.00;;
55330;SDS011;58851;42.984;20.336;2023-11-21T00:53:50;193.00;;;119.93;;
55330;SDS011;58851;42.984;20.336;2023-11-21T00:56:16;151.70;;;99.15;;
55330;SDS011;58851;42.984;20.336;2023-11-21T00:58:42;146.35;;;93.00;;
55330;SDS011;58851;42.984;20.336;2023-11-21T01:01:11;144.18;;;89.07;;
55330;SDS011;58851;42.984;20.336;2023-11-21T01:03:37;125.18;;;81.85;;
55330;SDS011;58851;42.984;20.336;2023-11-21T01:06:03;132.75;;;88.15;;
55330;SDS011;58851;42.984;20.336;2023-11-21T01:08:32;122.45;;;77.18;;
55330;SDS011;58851;42.984;20.336;2023-11-21T01:10:58;117.50;;;73.53;;
55330;SDS011;58851;42.984;20.336;2023-11-21T01:13:24;138.85;;;83.38;;
55330;SDS011;58851;42.984;20.336;2023-11-21T01:15:54;136.77;;;89.88;;
55330;SDS011;58851;42.984;20.336;2023-11-21T01:18:20;142.73;;;92.97;;
55330;SDS011;58851;42.984;20.336;2023-11-21T01:20:46;145.70;;;88.82;;
55330;SDS011;58851;42.984;20.336;2023-11-21T01:23:12;134.77;;;86.63;;
55330;SDS011;58851;42.984;20.336;2023-11-21T01:25:39;134.00;;;85.80;;
55330;SDS011;58851;42.984;20.336;2023-11-21T01:28:05;128.95;;;81.70;;
55330;SDS011;58851;42.984;20.336;2023-11-21T01:30:31;115.80;;;75.07;;
55330;SDS011;58851;42.984;20.336;2023-11-21T01:32:57;120.07;;;79.75;;
55330;SDS011;58851;42.984;20.336;2023-11-21T01:35:24;110.75;;;71.15;;
55330;SDS011;58851;42.984;20.336;2023-11-21T01:37:49;107.97;;;70.55;;
55330;SDS011;58851;42.984;20.336;2023-11-21T01:40:15;114.13;;;68.82;;
55330;SDS011;58851;42.984;20.336;2023-11-21T01:42:42;110.22;;;69.70;;
55330;SDS011;58851;42.984;20.336;2023-11-21T01:45:12;157.85;;;93.05;;
55330;SDS011;58851;42.984;20.336;2023-11-21T01:47:39;147.73;;;89.63;;
55330;SDS011;58851;42.984;20.336;2023-11-21T01:50:11;132.18;;;81.72;;
55330;SDS011;58851;42.984;20.336;2023-11-21T01:52:41;126.80;;;77.85;;
55330;SDS011;58851;42.984;20.336;2023-11-21T01:55:11;112.25;;;71.03;;
55330;SDS011;58851;42.984;20.336;2023-11-21T01:57:43;102.82;;;67.63;;
55330;SDS011;58851;42.984;20.336;2023-11-21T02:00:09;91.32;;;58.92;;
55330;SDS011;58851;42.984;20.336;2023-11-21T02:02:47;74.57;;;48.83;;
55330;SDS011;58851;42.984;20.336;2023-11-21T02:05:17;67.03;;;43.75;;
55330;SDS011;58851;42.984;20.336;2023-11-21T02:07:44;78.63;;;48.25;;
55330;SDS011;58851;42.984;20.336;2023-11-21T02:10:12;75.47;;;51.33;;
55330;SDS011;58851;42.984;20.336;2023-11-21T02:12:41;78.97;;;49.63;;
55330;SDS011;58851;42.984;20.336;2023-11-21T02:15:08;75.68;;;46.92;;
55330;SDS011;58851;42.984;20.336;2023-11-21T02:17:41;73.03;;;44.50;;
55330;SDS011;58851;42.984;20.336;2023-11-21T02:20:11;63.10;;;42.83;;
55330;SDS011;58851;42.984;20.336;2023-11-21T02:22:41;71.35;;;47.17;;
55330;SDS011;58851;42.984;20.336;2023-11-21T02:25:07;71.97;;;46.13;;
55330;SDS011;58851;42.984;20.336;2023-11-21T02:27:33;79.63;;;49.35;;
55330;SDS011;58851;42.984;20.336;2023-11-21T02:29:59;74.38;;;49.30;;
55330;SDS011;58851;42.984;20.336;2023-11-21T02:32:26;73.63;;;48.33;;
55330;SDS011;58851;42.984;20.336;2023-11-21T02:34:52;75.40;;;47.20;;
55330;SDS011;58851;42.984;20.336;2023-11-21T02:37:21;71.82;;;48.40;;
55330;SDS011;58851;42.984;20.336;2023-11-21T02:39:46;78.95;;;47.25;;
55330;SDS011;58851;42.984;20.336;2023-11-21T02:42:12;78.03;;;48.38;;
55330;SDS011;58851;42.984;20.336;2023-11-21T02:44:38;72.93;;;47.95;;
55330;SDS011;58851;42.984;20.336;2023-11-21T02:47:04;75.68;;;48.83;;
55330;SDS011;58851;42.984;20.336;2023-11-21T02:49:30;77.30;;;49.03;;
55330;SDS011;58851;42.984;20.336;2023-11-21T02:51:56;75.22;;;46.88;;
55330;SDS011;58851;42.984;20.336;2023-11-21T02:54:21;75.10;;;45.10;;
55330;SDS011;58851;42.984;20.336;2023-11-21T02:56:47;77.28;;;49.00;;
55330;SDS011;58851;42.984;20.336;2023-11-21T02:59:14;95.38;;;56.58;;
55330;SDS011;58851;42.984;20.336;2023-11-21T03:01:42;95.03;;;61.67;;
55330;SDS011;58851;42.984;20.336;2023-11-21T03:04:08;113.43;;;68.45;;
55330;SDS011;58851;42.984;20.336;2023-11-21T03:06:33;102.28;;;60.65;;
55330;SDS011;58851;42.984;20.336;2023-11-21T03:08:59;111.10;;;67.03;;
55330;SDS011;58851;42.984;20.336;2023-11-21T03:11:25;125.10;;;69.40;;
55330;SDS011;58851;42.984;20.336;2023-11-21T03:13:51;108.20;;;67.72;;
55330;SDS011;58851;42.984;20.336;2023-11-21T03:16:18;104.47;;;60.40;;
55330;SDS011;58851;42.984;20.336;2023-11-21T03:18:44;110.25;;;64.85;;
55330;SDS011;58851;42.984;20.336;2023-11-21T03:21:10;106.03;;;63.83;;
55330;SDS011;58851;42.984;20.336;2023-11-21T03:23:36;98.80;;;59.22;;
55330;SDS011;58851;42.984;20.336;2023-11-21T03:26:02;98.20;;;58.83;;
55330;SDS011;58851;42.984;20.336;2023-11-21T03:28:29;93.28;;;59.70;;
55330;SDS011;58851;42.984;20.336;2023-11-21T03:30:57;84.88;;;54.63;;
55330;SDS011;58851;42.984;20.336;2023-11-21T03:33:23;113.05;;;66.05;;
55330;SDS011;58851;42.984;20.336;2023-11-21T03:35:49;112.70;;;62.72;;
55330;SDS011;58851;42.984;20.336;2023-11-21T03:38:15;101.78;;;65.05;;
55330;SDS011;58851;42.984;20.336;2023-11-21T03:40:41;104.32;;;60.97;;
55330;SDS011;58851;42.984;20.336;2023-11-21T03:43:07;96.60;;;61.03;;
55330;SDS011;58851;42.984;20.336;2023-11-21T03:45:33;97.05;;;60.97;;
55330;SDS011;58851;42.984;20.336;2023-11-21T03:47:59;89.68;;;60.03;;
55330;SDS011;58851;42.984;20.336;2023-11-21T03:50:27;88.78;;;57.20;;
55330;SDS011;58851;42.984;20.336;2023-11-21T03:52:56;91.78;;;63.45;;
55330;SDS011;58851;42.984;20.336;2023-11-21T03:55:22;102.20;;;69.47;;
55330;SDS011;58851;42.984;20.336;2023-11-21T03:57:51;109.95;;;78.30;;
55330;SDS011;58851;42.984;20.336;2023-11-21T04:00:17;103.80;;;72.03;;
55330;SDS011;58851;42.984;20.336;2023-11-21T04:02:45;86.55;;;62.70;;
55330;SDS011;58851;42.984;20.336;2023-11-21T04:05:10;82.55;;;59.05;;
55330;SDS011;58851;42.984;20.336;2023-11-21T04:07:37;79.18;;;56.50;;
55330;SDS011;58851;42.984;20.336;2023-11-21T04:10:04;86.07;;;56.05;;
55330;SDS011;58851;42.984;20.336;2023-11-21T04:12:37;73.32;;;53.38;;
55330;SDS011;58851;42.984;20.336;2023-11-21T04:15:03;89.50;;;57.85;;
55330;SDS011;58851;42.984;20.336;2023-11-21T04:17:29;78.28;;;52.40;;
55330;SDS011;58851;42.984;20.336;2023-11-21T04:19:55;82.75;;;57.08;;
55330;SDS011;58851;42.984;20.336;2023-11-21T04:22:21;95.85;;;63.90;;
55330;SDS011;58851;42.984;20.336;2023-11-21T04:24:47;96.88;;;65.40;;
55330;SDS011;58851;42.984;20.336;2023-11-21T04:27:14;81.22;;;56.65;;
55330;SDS011;58851;42.984;20.336;2023-11-21T04:29:40;89.55;;;58.30;;
55330;SDS011;58851;42.984;20.336;2023-11-21T04:32:06;80.88;;;55.10;;
55330;SDS011;58851;42.984;20.336;2023-11-21T04:34:33;81.85;;;54.13;;
55330;SDS011;58851;42.984;20.336;2023-11-21T04:36:59;87.40;;;58.33;;
55330;SDS011;58851;42.984;20.336;2023-11-21T04:39:25;98.60;;;65.53;;
55330;SDS011;58851;42.984;20.336;2023-11-21T04:41:51;144.02;;;84.55;;
55330;SDS011;58851;42.984;20.336;2023-11-21T04:44:17;215.02;;;123.28;;
55330;SDS011;58851;42.984;20.336;2023-11-21T04:46:43;90.28;;;60.65;;
55330;SDS011;58851;42.984;20.336;2023-11-21T04:49:09;90.15;;;60.85;;
55330;SDS011;58851;42.984;20.336;2023-11-21T04:51:36;89.45;;;60.42;;
55330;SDS011;58851;42.984;20.336;2023-11-21T04:54:01;84.32;;;59.92;;
55330;SDS011;58851;42.984;20.336;2023-11-21T04:56:27;88.22;;;56.55;;
55330;SDS011;58851;42.984;20.336;2023-11-21T04:58:54;87.32;;;58.38;;
55330;SDS011;58851;42.984;20.336;2023-11-21T05:01:19;90.63;;;62.80;;
55330;SDS011;58851;42.984;20.336;2023-11-21T05:03:46;132.23;;;86.43;;
55330;SDS011;58851;42.984;20.336;2023-11-21T05:06:12;124.93;;;84.38;;
55330;SDS011;58851;42.984;20.336;2023-11-21T05:08:39;118.10;;;74.80;;
55330;SDS011;58851;42.984;20.336;2023-11-21T05:11:05;123.75;;;82.35;;
55330;SDS011;58851;42.984;20.336;2023-11-21T05:13:33;134.70;;;86.88;;
55330;SDS011;58851;42.984;20.336;2023-11-21T05:15:59;124.65;;;82.40;;
55330;SDS011;58851;42.984;20.336;2023-11-21T05:18:29;118.38;;;71.32;;
55330;SDS011;58851;42.984;20.336;2023-11-21T05:20:55;94.93;;;61.47;;
55330;SDS011;58851;42.984;20.336;2023-11-21T05:23:21;91.60;;;58.67;;
55330;SDS011;58851;42.984;20.336;2023-11-21T05:25:47;92.88;;;55.70;;
55330;SDS011;58851;42.984;20.336;2023-11-21T05:28:13;86.05;;;55.50;;
55330;SDS011;58851;42.984;20.336;2023-11-21T05:30:38;82.75;;;54.60;;
55330;SDS011;58851;42.984;20.336;2023-11-21T05:33:08;80.05;;;54.22;;
55330;SDS011;58851;42.984;20.336;2023-11-21T05:35:34;80.55;;;50.17;;
55330;SDS011;58851;42.984;20.336;2023-11-21T05:38:01;81.03;;;51.35;;
55330;SDS011;58851;42.984;20.336;2023-11-21T05:40:27;91.95;;;55.35;;
55330;SDS011;58851;42.984;20.336;2023-11-21T05:42:55;93.10;;;62.03;;
55330;SDS011;58851;42.984;20.336;2023-11-21T05:45:23;96.03;;;62.90;;
55330;SDS011;58851;42.984;20.336;2023-11-21T05:47:49;94.75;;;60.20;;
55330;SDS011;58851;42.984;20.336;2023-11-21T05:50:16;98.05;;;64.38;;
55330;SDS011;58851;42.984;20.336;2023-11-21T05:52:44;98.00;;;63.10;;
55330;SDS011;58851;42.984;20.336;2023-11-21T05:55:10;96.35;;;60.83;;
55330;SDS011;58851;42.984;20.336;2023-11-21T05:57:37;109.75;;;67.13;;
55330;SDS011;58851;42.984;20.336;2023-11-21T06:00:04;115.97;;;69.88;;
55330;SDS011;58851;42.984;20.336;2023-11-21T06:02:40;121.47;;;75.15;;
55330;SDS011;58851;42.984;20.336;2023-11-21T06:05:07;125.13;;;77.63;;
55330;SDS011;58851;42.984;20.336;2023-11-21T06:07:33;126.80;;;78.32;;
55330;SDS011;58851;42.984;20.336;2023-11-21T06:10:01;135.65;;;83.93;;
55330;SDS011;58851;42.984;20.336;2023-11-21T06:12:31;119.05;;;76.10;;
55330;SDS011;58851;42.984;20.336;2023-11-21T06:15:00;114.38;;;73.13;;
55330;SDS011;58851;42.984;20.336;2023-11-21T06:17:30;98.10;;;65.05;;
55330;SDS011;58851;42.984;20.336;2023-11-21T06:19:57;113.00;;;72.72;;
55330;SDS011;58851;42.984;20.336;2023-11-21T06:22:26;102.65;;;64.60;;
55330;SDS011;58851;42.984;20.336;2023-11-21T06:24:52;83.28;;;61.42;;
55330;SDS011;58851;42.984;20.336;2023-11-21T06:27:18;87.88;;;62.67;;
55330;SDS011;58851;42.984;20.336;2023-11-21T06:29:45;78.35;;;54.78;;
55330;SDS011;58851;42.984;20.336;2023-11-21T06:32:11;80.50;;;56.08;;
55330;SDS011;58851;42.984;20.336;2023-11-21T06:34:36;90.25;;;56.55;;
55330;SDS011;58851;42.984;20.336;2023-11-21T06:37:02;90.55;;;63.03;;
55330;SDS011;58851;42.984;20.336;2023-11-21T06:39:29;113.00;;;77.35;;
55330;SDS011;58851;42.984;20.336;2023-11-21T06:41:54;123.72;;;81.28;;
55330;SDS011;58851;42.984;20.336;2023-11-21T06:44:21;178.05;;;114.35;;
55330;SDS011;58851;42.984;20.336;2023-11-21T06:46:47;311.35;;;192.30;;
55330;SDS011;58851;42.984;20.336;2023-11-21T06:49:13;255.85;;;158.02;;
55330;SDS011;58851;42.984;20.336;2023-11-21T06:51:39;217.02;;;135.13;;
55330;SDS011;58851;42.984;20.336;2023-11-21T06:54:05;154.15;;;99.15;;
55330;SDS011;58851;42.984;20.336;2023-11-21T06:56:31;123.22;;;84.07;;
55330;SDS011;58851;42.984;20.336;2023-11-21T06:58:57;116.55;;;77.63;;
55330;SDS011;58851;42.984;20.336;2023-11-21T07:01:23;100.00;;;68.05;;
55330;SDS011;58851;42.984;20.336;2023-11-21T07:03:53;107.38;;;71.80;;
55330;SDS011;58851;42.984;20.336;2023-11-21T07:06:19;117.45;;;80.65;;
55330;SDS011;58851;42.984;20.336;2023-11-21T07:08:45;124.05;;;84.13;;
55330;SDS011;58851;42.984;20.336;2023-11-21T07:11:12;117.18;;;80.22;;
55330;SDS011;58851;42.984;20.336;2023-11-21T07:13:38;121.60;;;78.55;;
55330;SDS011;58851;42.984;20.336;2023-11-21T07:16:04;122.10;;;82.80;;
55330;SDS011;58851;42.984;20.336;2023-11-21T07:18:30;121.85;;;80.18;;
55330;SDS011;58851;42.984;20.336;2023-11-21T07:20:55;101.28;;;68.72;;
55330;SDS011;58851;42.984;20.336;2023-11-21T07:23:21;118.55;;;75.63;;
55330;SDS011;58851;42.984;20.336;2023-11-21T07:25:48;109.32;;;73.80;;
55330;SDS011;58851;42.984;20.336;2023-11-21T07:28:14;109.95;;;74.22;;
55330;SDS011;58851;42.984;20.336;2023-11-21T07:30:40;96.97;;;67.55;;
55330;SDS011;58851;42.984;20.336;2023-11-21T07:33:07;104.55;;;72.00;;
55330;SDS011;58851;42.984;20.336;2023-11-21T07:35:32;98.72;;;67.68;;
55330;SDS011;58851;42.984;20.336;2023-11-21T07:37:59;106.68;;;68.75;;
55330;SDS011;58851;42.984;20.336;2023-11-21T07:40:24;92.20;;;65.30;;
55330;SDS011;58851;42.984;20.336;2023-11-21T07:42:51;90.70;;;65.18;;
55330;SDS011;58851;42.984;20.336;2023-11-21T07:45:17;91.35;;;60.10;;
55330;SDS011;58851;42.984;20.336;2023-11-21T07:47:43;87.53;;;63.88;;
55330;SDS011;58851;42.984;20.336;2023-11-21T07:50:09;98.30;;;69.15;;
55330;SDS011;58851;42.984;20.336;2023-11-21T07:52:35;98.93;;;66.63;;
55330;SDS011;58851;42.984;20.336;2023-11-21T07:55:01;99.85;;;66.97;;
55330;SDS011;58851;42.984;20.336;2023-11-21T07:57:26;100.63;;;65.32;;
55330;SDS011;58851;42.984;20.336;2023-11-21T07:59:52;98.05;;;68.57;;
55330;SDS011;58851;42.984;20.336;2023-11-21T08:02:21;83.75;;;58.83;;
55330;SDS011;58851;42.984;20.336;2023-11-21T08:04:47;95.40;;;62.85;;
55330;SDS011;58851;42.984;20.336;2023-11-21T08:07:15;103.72;;;67.85;;
55330;SDS011;58851;42.984;20.336;2023-11-21T08:09:42;96.43;;;66.53;;
55330;SDS011;58851;42.984;20.336;2023-11-21T08:12:09;93.97;;;65.35;;
55330;SDS011;58851;42.984;20.336;2023-11-21T08:14:36;129.65;;;91.30;;
55330;SDS011;58851;42.984;20.336;2023-11-21T08:17:04;125.43;;;84.13;;
55330;SDS011;58851;42.984;20.336;2023-11-21T08:19:29;129.55;;;82.03;;
55330;SDS011;58851;42.984;20.336;2023-11-21T08:21:55;122.55;;;81.32;;
55330;SDS011;58851;42.984;20.336;2023-11-21T08:24:21;119.45;;;78.18;;
55330;SDS011;58851;42.984;20.336;2023-11-21T08:26:47;86.75;;;61.78;;
55330;SDS011;58851;42.984;20.336;2023-11-21T08:29:13;70.38;;;51.65;;
55330;SDS011;58851;42.984;20.336;2023-11-21T08:31:39;78.65;;;52.38;;
55330;SDS011;58851;42.984;20.336;2023-11-21T08:34:06;70.60;;;51.35;;
55330;SDS011;58851;42.984;20.336;2023-11-21T08:36:32;81.72;;;56.17;;
55330;SDS011;58851;42.984;20.336;2023-11-21T08:38:57;81.55;;;60.40;;
55330;SDS011;58851;42.984;20.336;2023-11-21T08:41:23;70.28;;;52.15;;
55330;SDS011;58851;42.984;20.336;2023-11-21T08:43:50;73.05;;;52.78;;
55330;SDS011;58851;42.984;20.336;2023-11-21T08:46:16;77.28;;;55.88;;
55330;SDS011;58851;42.984;20.336;2023-11-21T08:48:44;67.10;;;49.35;;
55330;SDS011;58851;42.984;20.336;2023-11-21T08:51:11;66.20;;;50.53;;
55330;SDS011;58851;42.984;20.336;2023-11-21T08:53:37;70.82;;;54.13;;
55330;SDS011;58851;42.984;20.336;2023-11-21T08:56:03;81.30;;;60.40;;
55330;SDS011;58851;42.984;20.336;2023-11-21T08:58:30;80.55;;;59.30;;
55330;SDS011;58851;42.984;20.336;2023-11-21T09:00:57;81.80;;;60.95;;
55330;SDS011;58851;42.984;20.336;2023-11-21T09:03:23;90.78;;;66.20;;
55330;SDS011;58851;42.984;20.336;2023-11-21T09:05:49;143.23;;;96.63;;
55330;SDS011;58851;42.984;20.336;2023-11-21T09:08:15;102.20;;;75.05;;
55330;SDS011;58851;42.984;20.336;2023-11-21T09:10:41;106.13;;;73.72;;
55330;SDS011;58851;42.984;20.336;2023-11-21T09:13:08;104.45;;;76.75;;
55330;SDS011;58851;42.984;20.336;2023-11-21T09:15:35;108.53;;;77.55;;
55330;SDS011;58851;42.984;20.336;2023-11-21T09:18:01;104.55;;;79.47;;
55330;SDS011;58851;42.984;20.336;2023-11-21T09:20:27;116.78;;;86.13;;
55330;SDS011;58851;42.984;20.336;2023-11-21T09:22:53;111.95;;;80.40;;
55330;SDS011;58851;42.984;20.336;2023-11-21T09:25:20;108.03;;;79.80;;
55330;SDS011;58851;42.984;20.336;2023-11-21T09:27:46;120.63;;;85.30;;
55330;SDS011;58851;42.984;20.336;2023-11-21T09:30:12;124.90;;;88.85;;
55330;SDS011;58851;42.984;20.336;2023-11-21T09:32:39;111.38;;;80.75;;
55330;SDS011;58851;42.984;20.336;2023-11-21T09:35:05;101.32;;;74.18;;
55330;SDS011;58851;42.984;20.336;2023-11-21T09:37:35;107.05;;;76.75;;
55330;SDS011;58851;42.984;20.336;2023-11-21T09:40:03;105.72;;;79.57;;
55330;SDS011;58851;42.984;20.336;2023-11-21T09:42:32;113.05;;;86.25;;
55330;SDS011;58851;42.984;20.336;2023-11-21T09:47:56;126.30;;;87.55;;
55330;SDS011;58851;42.984;20.336;2023-11-21T09:50:22;146.88;;;97.95;;
55330;SDS011;58851;42.984;20.336;2023-11-21T09:53:02;108.38;;;72.57;;
55330;SDS011;58851;42.984;20.336;2023-11-21T09:55:45;111.18;;;75.97;;
55330;SDS011;58851;42.984;20.336;2023-11-21T09:58:12;109.70;;;75.90;;
55330;SDS011;58851;42.984;20.336;2023-11-21T10:00:46;107.95;;;72.75;;
55330;SDS011;58851;42.984;20.336;2023-11-21T10:03:13;103.57;;;74.13;;
55330;SDS011;58851;42.984;20.336;2023-11-21T10:05:42;93.97;;;71.40;;
55330;SDS011;58851;42.984;20.336;2023-11-21T10:08:10;101.32;;;73.25;;
55330;SDS011;58851;42.984;20.336;2023-11-21T10:10:37;96.63;;;70.78;;
55330;SDS011;58851;42.984;20.336;2023-11-21T10:13:08;103.45;;;73.57;;
55330;SDS011;58851;42.984;20.336;2023-11-21T10:15:37;111.50;;;82.43;;
55330;SDS011;58851;42.984;20.336;2023-11-21T10:18:04;121.05;;;86.97;;
55330;SDS011;58851;42.984;20.336;2023-11-21T10:20:32;128.82;;;97.03;;
55330;SDS011;58851;42.984;20.336;2023-11-21T10:22:59;114.85;;;82.80;;
55330;SDS011;58851;42.984;20.336;2023-11-21T10:25:27;113.53;;;84.75;;
55330;SDS011;58851;42.984;20.336;2023-11-21T10:27:57;125.18;;;89.07;;
55330;SDS011;58851;42.984;20.336;2023-11-21T10:30:33;118.90;;;84.05;;
55330;SDS011;58851;42.984;20.336;2023-11-21T10:33:06;107.32;;;82.03;;
55330;SDS011;58851;42.984;20.336;2023-11-21T10:35:43;99.28;;;74.53;;
55330;SDS011;58851;42.984;20.336;2023-11-21T10:38:15;102.20;;;78.22;;
55330;SDS011;58851;42.984;20.336;2023-11-21T10:40:46;111.80;;;81.97;;
55330;SDS011;58851;42.984;20.336;2023-11-21T10:43:13;115.10;;;85.15;;
55330;SDS011;58851;42.984;20.336;2023-11-21T10:45:40;119.90;;;86.55;;
55330;SDS011;58851;42.984;20.336;2023-11-21T10:48:07;115.70;;;86.00;;
55330;SDS011;58851;42.984;20.336;2023-11-21T10:50:44;100.30;;;70.30;;
55330;SDS011;58851;42.984;20.336;2023-11-21T10:53:12;90.97;;;63.63;;
55330;SDS011;58851;42.984;20.336;2023-11-21T10:55:38;100.00;;;72.50;;
55330;SDS011;58851;42.984;20.336;2023-11-21T10:58:05;108.65;;;78.47;;
55330;SDS011;58851;42.984;20.336;2023-11-21T11:00:32;100.18;;;69.38;;
55330;SDS011;58851;42.984;20.336;2023-11-21T11:02:59;83.53;;;57.25;;
55330;SDS011;58851;42.984;20.336;2023-11-21T11:05:27;136.80;;;95.10;;
55330;SDS011;58851;42.984;20.336;2023-11-21T11:07:58;86.85;;;66.78;;
55330;SDS011;58851;42.984;20.336;2023-11-21T11:10:28;93.85;;;67.30;;
55330;SDS011;58851;42.984;20.336;2023-11-21T11:12:54;98.25;;;66.10;;
55330;SDS011;58851;42.984;20.336;2023-11-21T11:15:23;95.40;;;67.10;;
55330;SDS011;58851;42.984;20.336;2023-11-21T11:17:51;88.50;;;65.47;;
55330;SDS011;58851;42.984;20.336;2023-11-21T11:20:22;72.72;;;54.25;;
55330;SDS011;58851;42.984;20.336;2023-11-21T11:32:03;62.63;;;46.83;;
55330;SDS011;58851;42.984;20.336;2023-11-21T11:34:44;70.88;;;57.72;;
55330;SDS011;58851;42.984;20.336;2023-11-21T11:37:19;82.03;;;63.03;;
55330;SDS011;58851;42.984;20.336;2023-11-21T11:39:46;76.43;;;57.35;;
55330;SDS011;58851;42.984;20.336;2023-11-21T11:42:13;66.85;;;50.08;;
55330;SDS011;58851;42.984;20.336;2023-11-21T11:47:17;74.82;;;57.17;;
55330;SDS011;58851;42.984;20.336;2023-11-21T11:52:48;72.15;;;53.58;;
55330;SDS011;58851;42.984;20.336;2023-11-21T11:55:17;63.20;;;48.88;;
55330;SDS011;58851;42.984;20.336;2023-11-21T11:57:48;57.95;;;43.97;;
55330;SDS011;58851;42.984;20.336;2023-11-21T12:00:18;60.85;;;44.83;;
55330;SDS011;58851;42.984;20.336;2023-11-21T12:05:17;68.97;;;50.92;;
55330;SDS011;58851;42.984;20.336;2023-11-21T12:10:17;73.43;;;58.15;;
55330;SDS011;58851;42.984;20.336;2023-11-21T12:12:45;59.35;;;44.97;;
55330;SDS011;58851;42.984;20.336;2023-11-21T12:15:15;62.40;;;47.45;;
55330;SDS011;58851;42.984;20.336;2023-11-21T12:17:42;64.35;;;47.63;;
55330;SDS011;58851;42.984;20.336;2023-11-21T12:20:10;60.85;;;44.95;;
55330;SDS011;58851;42.984;20.336;2023-11-21T12:22:46;149.75;;;91.85;;
55330;SDS011;58851;42.984;20.336;2023-11-21T12:25:14;142.98;;;87.10;;
55330;SDS011;58851;42.984;20.336;2023-11-21T12:27:44;54.25;;;40.08;;
55330;SDS011;58851;42.984;20.336;2023-11-21T12:30:15;56.55;;;39.53;;
55330;SDS011;58851;42.984;20.336;2023-11-21T12:32:43;62.15;;;42.65;;
55330;SDS011;58851;42.984;20.336;2023-11-21T12:35:14;62.05;;;43.63;;
55330;SDS011;58851;42.984;20.336;2023-11-21T12:37:41;66.13;;;47.83;;
55330;SDS011;58851;42.984;20.336;2023-11-21T12:40:12;52.70;;;40.33;;
55330;SDS011;58851;42.984;20.336;2023-11-21T12:42:43;70.85;;;48.92;;
55330;SDS011;58851;42.984;20.336;2023-11-21T12:50:19;44.45;;;33.72;;
55330;SDS011;58851;42.984;20.336;2023-11-21T12:52:49;47.35;;;34.90;;
55330;SDS011;58851;42.984;20.336;2023-11-21T12:55:17;46.30;;;33.70;;
55330;SDS011;58851;42.984;20.336;2023-11-21T12:57:44;43.38;;;33.63;;
55330;SDS011;58851;42.984;20.336;2023-11-21T13:00:12;48.10;;;36.03;;
55330;SDS011;58851;42.984;20.336;2023-11-21T13:02:50;66.70;;;48.85;;
55330;SDS011;58851;42.984;20.336;2023-11-21T13:05:32;58.25;;;42.15;;
55330;SDS011;58851;42.984;20.336;2023-11-21T13:08:08;67.20;;;49.88;;
55330;SDS011;58851;42.984;20.336;2023-11-21T13:10:37;52.55;;;40.80;;
55330;SDS011;58851;42.984;20.336;2023-11-21T13:13:06;48.47;;;35.28;;
55330;SDS011;58851;42.984;20.336;2023-11-21T13:15:34;52.30;;;38.08;;
55330;SDS011;58851;42.984;20.336;2023-11-21T13:18:01;42.15;;;29.67;;
55330;SDS011;58851;42.984;20.336;2023-11-21T13:20:28;47.33;;;39.30;;
55330;SDS011;58851;42.984;20.336;2023-11-21T13:22:55;41.78;;;36.65;;
55330;SDS011;58851;42.984;20.336;2023-11-21T13:25:33;52.95;;;43.42;;
55330;SDS011;58851;42.984;20.336;2023-11-21T13:27:59;62.08;;;47.75;;
55330;SDS011;58851;42.984;20.336;2023-11-21T13:30:27;58.65;;;46.72;;
55330;SDS011;58851;42.984;20.336;2023-11-21T13:32:58;64.03;;;47.58;;
55330;SDS011;58851;42.984;20.336;2023-11-21T13:35:30;70.97;;;49.38;;
55330;SDS011;58851;42.984;20.336;2023-11-21T13:38:24;61.47;;;44.65;;
55330;SDS011;58851;42.984;20.336;2023-11-21T13:40:55;41.67;;;31.67;;
55330;SDS011;58851;42.984;20.336;2023-11-21T13:43:24;41.95;;;33.42;;
55330;SDS011;58851;42.984;20.336;2023-11-21T13:45:53;56.08;;;44.05;;
55330;SDS011;58851;42.984;20.336;2023-11-21T13:48:29;44.88;;;35.72;;
55330;SDS011;58851;42.984;20.336;2023-11-21T13:51:06;42.80;;;31.27;;
55330;SDS011;58851;42.984;20.336;2023-11-21T13:53:45;40.83;;;31.60;;
55330;SDS011;58851;42.984;20.336;2023-11-21T13:56:15;47.53;;;37.95;;
55330;SDS011;58851;42.984;20.336;2023-11-21T13:58:53;34.60;;;26.50;;
55330;SDS011;58851;42.984;20.336;2023-11-21T14:01:21;45.05;;;31.52;;
55330;SDS011;58851;42.984;20.336;2023-11-21T14:03:57;44.80;;;32.50;;
55330;SDS011;58851;42.984;20.336;2023-11-21T14:06:46;51.03;;;37.50;;
55330;SDS011;58851;42.984;20.336;2023-11-21T14:09:14;48.22;;;34.30;;
55330;SDS011;58851;42.984;20.336;2023-11-21T14:11:48;41.28;;;33.88;;
55330;SDS011;58851;42.984;20.336;2023-11-21T14:14:22;40.95;;;31.48;;
55330;SDS011;58851;42.984;20.336;2023-11-21T14:16:52;40.88;;;27.50;;
55330;SDS011;58851;42.984;20.336;2023-11-21T14:19:19;39.78;;;30.77;;
55330;SDS011;58851;42.984;20.336;2023-11-21T14:21:47;61.95;;;43.65;;
55330;SDS011;58851;42.984;20.336;2023-11-21T14:24:15;58.25;;;44.38;;
55330;SDS011;58851;42.984;20.336;2023-11-21T14:26:44;70.82;;;50.40;;
55330;SDS011;58851;42.984;20.336;2023-11-21T14:29:11;63.17;;;41.47;;
55330;SDS011;58851;42.984;20.336;2023-11-21T14:31:42;43.72;;;32.95;;
55330;SDS011;58851;42.984;20.336;2023-11-21T14:34:08;46.47;;;33.13;;